createdAt,value
2023-02-26T00:02:28.717Z,97769.88
2023-02-26T00:05:18.224Z,97776.97
2023-02-26T00:08:05.995Z,97778.03
2023-02-26T00:10:54.871Z,97774.88
2023-02-26T00:13:46.689Z,97780.28
2023-02-26T00:16:37.162Z,97784.91
2023-02-26T00:19:25.180Z,97781.72
2023-02-26T00:22:15.295Z,97794.06
2023-02-26T00:25:02.937Z,97785.69
2023-02-26T00:27:51.107Z,97795.50
2023-02-26T00:30:40.075Z,97791.09
2023-02-26T00:33:28.824Z,97788.69
2023-02-26T00:36:24.390Z,97796.91
2023-02-26T00:39:36.762Z,97791.69
2023-02-26T00:42:24.968Z,97804.03
2023-02-26T00:45:15.173Z,97800.84
2023-02-26T00:48:29.256Z,97803.75
2023-02-26T00:51:31.620Z,97798.81
2023-02-26T00:54:23.993Z,97794.75
2023-02-26T00:57:11.394Z,97801.19
2023-02-26T00:59:58.930Z,97803.16
2023-02-26T01:02:47.403Z,97797.13
2023-02-26T01:05:35.992Z,97800.13
2023-02-26T01:08:33.877Z,97804.66
2023-02-26T01:11:23.484Z,97796.31
2023-02-26T01:14:11.411Z,97792.00
2023-02-26T01:17:07.607Z,97795.38
2023-02-26T01:20:03.835Z,97795.66
2023-02-26T01:22:58.333Z,97801.91
2023-02-26T01:25:51.313Z,97810.81
2023-02-26T01:28:41.351Z,97801.25
2023-02-26T01:31:43.976Z,97807.31
2023-02-26T01:34:41.205Z,97808.31
2023-02-26T01:37:50.376Z,97803.94
2023-02-26T01:41:11.358Z,97811.97
2023-02-26T01:44:23.981Z,97809.16
2023-02-26T01:47:21.744Z,97805.81
2023-02-26T01:50:18.307Z,97813.94
2023-02-26T01:53:25.586Z,97809.00
2023-02-26T01:56:18.468Z,97817.00
2023-02-26T01:59:08.938Z,97810.94
2023-02-26T02:02:00.701Z,97818.09
2023-02-26T02:04:50.121Z,97818.28
2023-02-26T02:07:37.907Z,97821.84
2023-02-26T02:10:25.317Z,97829.22
2023-02-26T02:13:30.682Z,97832.63
2023-02-26T02:16:32.927Z,97825.75
2023-02-26T02:20:10.633Z,97824.28
2023-02-26T02:23:18.679Z,97829.75
2023-02-26T02:26:36.587Z,97826.50
2023-02-26T02:29:54.746Z,97822.22
2023-02-26T02:32:50.605Z,97827.78
2023-02-26T02:35:45.874Z,97832.44
2023-02-26T02:38:40.915Z,97828.16
2023-02-26T02:41:36.675Z,97830.19
2023-02-26T02:44:32.274Z,97831.78
2023-02-26T02:47:24.539Z,97831.13
2023-02-26T02:50:20.785Z,97838.38
2023-02-26T02:53:18.304Z,97840.06
2023-02-26T02:56:13.877Z,97842.84
2023-02-26T02:59:16.328Z,97841.34
2023-02-26T03:02:12.352Z,97837.97
2023-02-26T03:05:00.131Z,97842.53
2023-02-26T03:07:55.195Z,97851.25
2023-02-26T03:10:43.971Z,97858.44
2023-02-26T03:13:31.776Z,97845.59
2023-02-26T03:16:50.335Z,97850.97
2023-02-26T03:19:50.551Z,97849.63
2023-02-26T03:22:52.103Z,97857.06
2023-02-26T03:25:51.317Z,97861.59
2023-02-26T03:28:50.859Z,97871.34
2023-02-26T03:31:51.706Z,97875.06
2023-02-26T03:34:44.666Z,97873.53
2023-02-26T03:37:39.061Z,97873.69
2023-02-26T03:40:32.605Z,97885.88
2023-02-26T03:43:25.945Z,97885.38
2023-02-26T03:46:24.005Z,97886.47
2023-02-26T03:49:19.613Z,97892.97
2023-02-26T03:52:08.649Z,97896.63
2023-02-26T03:55:01.933Z,97904.44
2023-02-26T03:57:50.356Z,97893.22
2023-02-26T04:00:45.461Z,97901.09
2023-02-26T04:03:41.218Z,97909.78
2023-02-26T04:06:30.227Z,97911.66
2023-02-26T04:09:18.169Z,97919.47
2023-02-26T04:12:06.465Z,97921.22
2023-02-26T04:14:55.483Z,97930.59
2023-02-26T04:17:44.222Z,97927.19
2023-02-26T04:20:31.960Z,97930.44
2023-02-26T04:23:20.217Z,97934.66
2023-02-26T04:26:08.208Z,97931.97
2023-02-26T04:28:55.748Z,97940.50
2023-02-26T04:31:43.611Z,97947.25
2023-02-26T04:34:32.957Z,97947.16
2023-02-26T04:37:20.755Z,97953.94
2023-02-26T04:40:10.417Z,97951.25
2023-02-26T04:42:58.262Z,97947.56
2023-02-26T04:45:47.497Z,97949.13
2023-02-26T04:48:34.966Z,97954.25
2023-02-26T04:51:23.897Z,97959.97
2023-02-26T04:54:11.426Z,97965.81
2023-02-26T04:56:59.176Z,97965.75
2023-02-26T04:59:46.974Z,97964.00
2023-02-26T05:02:34.635Z,97970.06
2023-02-26T05:05:22.633Z,97977.78
2023-02-26T05:08:12.070Z,97981.88
2023-02-26T05:10:59.879Z,97988.81
2023-02-26T05:13:47.898Z,97989.50
2023-02-26T05:16:35.392Z,97991.09
2023-02-26T05:19:22.951Z,97993.63
2023-02-26T05:22:10.436Z,97987.56
2023-02-26T05:24:59.600Z,98003.94
2023-02-26T05:27:47.157Z,97998.56
2023-02-26T05:30:34.656Z,97987.97
2023-02-26T05:33:22.343Z,97993.19
2023-02-26T05:36:10.686Z,97994.84
2023-02-26T05:38:58.070Z,97997.38
2023-02-26T05:41:48.046Z,98003.34
2023-02-26T05:44:36.068Z,98011.00
2023-02-26T05:47:24.227Z,98018.72
2023-02-26T05:50:13.755Z,98010.81
2023-02-26T05:53:01.182Z,98015.09
2023-02-26T05:55:48.548Z,98016.69
2023-02-26T05:58:37.595Z,98026.19
2023-02-26T06:01:25.634Z,98025.34
2023-02-26T06:04:13.226Z,98037.34
2023-02-26T06:07:01.038Z,98043.38
2023-02-26T06:09:48.534Z,98049.44
2023-02-26T06:12:36.346Z,98045.91
2023-02-26T06:15:25.758Z,98049.28
2023-02-26T06:18:13.381Z,98049.19
2023-02-26T06:21:01.196Z,98063.88
2023-02-26T06:23:48.904Z,98071.44
2023-02-26T06:26:36.928Z,98066.97
2023-02-26T06:29:25.105Z,98062.63
2023-02-26T06:32:14.385Z,98076.31
2023-02-26T06:35:02.351Z,98070.25
2023-02-26T06:37:49.816Z,98070.09
2023-02-26T06:40:37.328Z,98083.03
2023-02-26T06:43:24.885Z,98085.53
2023-02-26T06:46:12.812Z,98092.25
2023-02-26T06:49:01.794Z,98094.78
2023-02-26T06:51:49.372Z,98098.16
2023-02-26T06:54:36.896Z,98110.06
2023-02-26T06:57:24.347Z,98116.78
2023-02-26T07:00:13.167Z,98114.09
2023-02-26T07:03:00.715Z,98117.38
2023-02-26T07:05:49.908Z,98124.16
2023-02-26T07:08:38.654Z,98122.31
2023-02-26T07:11:26.389Z,98131.72
2023-02-26T07:14:13.898Z,98136.78
2023-02-26T07:17:01.780Z,98143.41
2023-02-26T07:19:51.467Z,98155.22
2023-02-26T07:22:40.602Z,98160.28
2023-02-26T07:25:28.407Z,98161.63
2023-02-26T07:28:16.075Z,98162.19
2023-02-26T07:31:04.132Z,98166.31
2023-02-26T07:33:51.593Z,98175.47
2023-02-26T07:36:38.965Z,98173.44
2023-02-26T07:39:28.421Z,98172.31
2023-02-26T07:42:16.355Z,98174.66
2023-02-26T07:45:04.295Z,98180.38
2023-02-26T07:47:53.380Z,98180.19
2023-02-26T07:50:40.985Z,98186.06
2023-02-26T07:53:28.383Z,98192.13
2023-02-26T07:56:17.191Z,98189.34
2023-02-26T07:59:04.758Z,98197.00
2023-02-26T08:01:52.498Z,98197.59
2023-02-26T08:04:40.288Z,98199.00
2023-02-26T08:07:27.752Z,98211.59
2023-02-26T08:10:15.705Z,98211.25
2023-02-26T08:13:04.603Z,98217.97
2023-02-26T08:15:52.417Z,98215.97
2023-02-26T08:18:40.044Z,98222.47
2023-02-26T08:21:27.622Z,98222.75
2023-02-26T08:24:15.722Z,98218.63
2023-02-26T08:27:03.546Z,98222.47
2023-02-26T08:29:52.692Z,98228.84
2023-02-26T08:32:42.366Z,98230.97
2023-02-26T08:35:30.192Z,98240.84
2023-02-26T08:38:18.218Z,98242.91
2023-02-26T08:41:06.291Z,98240.59
2023-02-26T08:43:53.898Z,98243.38
2023-02-26T08:46:42.782Z,98238.44
2023-02-26T08:49:30.991Z,98249.88
2023-02-26T08:52:18.811Z,98250.88
2023-02-26T08:55:07.922Z,98251.69
2023-02-26T08:57:55.369Z,98262.28
2023-02-26T09:00:43.183Z,98258.56
2023-02-26T09:03:32.052Z,98266.94
2023-02-26T09:06:20.056Z,98259.84
2023-02-26T09:09:07.671Z,98268.69
2023-02-26T09:11:55.395Z,98272.88
2023-02-26T09:14:42.968Z,98276.22
2023-02-26T09:17:30.583Z,98277.69
2023-02-26T09:20:20.432Z,98287.13
2023-02-26T09:23:08.088Z,98285.16
2023-02-26T09:25:56.517Z,98290.91
2023-02-26T09:28:44.570Z,98302.25
2023-02-26T09:31:33.823Z,98307.75
2023-02-26T09:34:21.643Z,98302.31
2023-02-26T09:37:11.514Z,98303.03
2023-02-26T09:39:59.362Z,98307.09
2023-02-26T09:43:11.923Z,98313.44
2023-02-26T09:46:07.293Z,98317.84
2023-02-26T09:49:10.241Z,98318.41
2023-02-26T09:52:06.387Z,98325.22
2023-02-26T09:55:01.246Z,98334.44
2023-02-26T09:57:53.593Z,98334.66
2023-02-26T10:00:53.127Z,98332.06
2023-02-26T10:03:59.341Z,98334.34
2023-02-26T10:07:08.847Z,98344.41
2023-02-26T10:10:16.310Z,98347.28
2023-02-26T10:13:04.534Z,98359.22
2023-02-26T10:15:54.596Z,98354.84
2023-02-26T10:18:53.781Z,98348.75
2023-02-26T10:21:49.733Z,98345.50
2023-02-26T10:24:44.206Z,98352.75
2023-02-26T10:27:51.784Z,98353.38
2023-02-26T10:30:46.094Z,98363.03
2023-02-26T10:33:44.762Z,98356.22
2023-02-26T10:36:46.670Z,98358.63
2023-02-26T10:39:40.585Z,98360.28
2023-02-26T10:42:33.955Z,98361.63
2023-02-26T10:45:46.435Z,98369.94
2023-02-26T10:48:59.591Z,98366.09
2023-02-26T10:51:48.370Z,98378.63
2023-02-26T10:54:42.194Z,98378.94
2023-02-26T10:57:34.079Z,98366.44
2023-02-26T11:00:23.665Z,98378.69
2023-02-26T11:03:19.966Z,98373.13
2023-02-26T11:06:09.034Z,98367.38
2023-02-26T11:09:00.317Z,98367.28
2023-02-26T11:11:54.147Z,98364.06
2023-02-26T11:14:44.217Z,98366.94
2023-02-26T11:17:33.411Z,98365.09
2023-02-26T11:20:34.989Z,98353.97
2023-02-26T11:23:27.126Z,98367.63
2023-02-26T11:26:19.609Z,98365.25
2023-02-26T11:29:07.782Z,98361.91
2023-02-26T11:31:58.208Z,98373.19
2023-02-26T11:34:51.577Z,98363.72
2023-02-26T11:37:47.447Z,98364.31
2023-02-26T11:40:40.907Z,98356.91
2023-02-26T11:43:37.376Z,98355.16
2023-02-26T11:46:26.845Z,98348.38
2023-02-26T11:49:20.180Z,98351.34
2023-02-26T11:52:22.195Z,98353.22
2023-02-26T11:55:22.981Z,98346.56
2023-02-26T11:58:21.952Z,98358.81
2023-02-26T12:01:17.671Z,98337.88
2023-02-26T12:04:07.673Z,98334.91
2023-02-26T12:06:57.398Z,98343.09
2023-02-26T12:09:47.673Z,98341.94
2023-02-26T12:13:08.210Z,98342.53
2023-02-26T12:16:04.629Z,98328.47
2023-02-26T12:19:08.111Z,98327.09
2023-02-26T12:22:16.190Z,98331.28
2023-02-26T12:25:40.912Z,98336.38
2023-02-26T12:29:37.171Z,98333.66
2023-02-26T12:32:44.195Z,98334.97
2023-02-26T12:36:11.899Z,98331.34
2023-02-26T12:39:14.681Z,98338.00
2023-02-26T12:42:19.949Z,98338.72
2023-02-26T12:45:38.119Z,98337.50
2023-02-26T12:49:24.666Z,98343.22
2023-02-26T12:52:57.925Z,98351.44
2023-02-26T12:56:05.727Z,98343.56
2023-02-26T12:59:13.711Z,98358.44
2023-02-26T13:02:29.671Z,98354.50
2023-02-26T13:05:39.995Z,98368.31
2023-02-26T13:08:36.660Z,98361.19
2023-02-26T13:11:47.424Z,98367.06
2023-02-26T13:14:51.061Z,98368.53
2023-02-26T13:17:51.373Z,98368.44
2023-02-26T13:20:48.111Z,98363.75
2023-02-26T13:23:44.110Z,98376.44
2023-02-26T13:26:33.924Z,98369.44
2023-02-26T13:29:28.242Z,98379.91
2023-02-26T13:32:22.492Z,98377.22
2023-02-26T13:35:21.632Z,98381.06
2023-02-26T13:38:22.298Z,98369.72
2023-02-26T13:41:18.058Z,98383.94
2023-02-26T13:44:26.394Z,98381.78
2023-02-26T13:47:42.530Z,98376.75
2023-02-26T13:50:47.158Z,98375.28
2023-02-26T13:53:59.021Z,98379.53
2023-02-26T13:56:56.564Z,98374.41
2023-02-26T13:59:55.476Z,98382.53
2023-02-26T14:02:52.403Z,98380.03
2023-02-26T14:06:10.368Z,98368.06
2023-02-26T14:09:04.740Z,98376.91
2023-02-26T14:12:02.138Z,98377.91
2023-02-26T14:15:32.596Z,98376.94
2023-02-26T14:18:37.306Z,98388.16
2023-02-26T14:21:50.170Z,98395.34
2023-02-26T14:24:39.974Z,98384.41
2023-02-26T14:27:37.407Z,98383.69
2023-02-26T14:30:35.716Z,98387.03
2023-02-26T14:33:31.632Z,98395.69
2023-02-26T14:36:35.572Z,98397.59
2023-02-26T14:39:40.154Z,98413.50
2023-02-26T14:42:36.976Z,98413.88
2023-02-26T14:45:31.915Z,98415.69
2023-02-26T14:48:25.137Z,98421.53
2023-02-26T14:51:29.331Z,98424.69
2023-02-26T14:54:51.284Z,98434.47
2023-02-26T14:57:53.548Z,98437.47
2023-02-26T15:00:53.667Z,98439.38
2023-02-26T15:04:50.553Z,98449.81
2023-02-26T15:08:01.408Z,98447.31
2023-02-26T15:11:16.698Z,98445.97
2023-02-26T15:14:48.430Z,98453.66
2023-02-26T15:17:57.037Z,98448.81
2023-02-26T15:21:00.444Z,98471.91
2023-02-26T15:23:53.144Z,98468.59
2023-02-26T15:26:52.446Z,98466.91
2023-02-26T15:29:43.182Z,98477.06
2023-02-26T15:32:32.586Z,98480.66
2023-02-26T15:35:23.715Z,98495.28
2023-02-26T15:38:12.225Z,98487.28
2023-02-26T15:41:04.873Z,98489.81
2023-02-26T15:43:57.054Z,98500.47
2023-02-26T15:46:49.643Z,98494.47
2023-02-26T15:49:41.189Z,98507.88
2023-02-26T15:52:30.610Z,98511.41
2023-02-26T15:55:19.029Z,98512.66
2023-02-26T15:58:09.402Z,98517.31
2023-02-26T16:01:05.015Z,98513.38
2023-02-26T16:03:55.215Z,98523.66
2023-02-26T16:06:48.169Z,98531.25
2023-02-26T16:09:39.781Z,98531.88
2023-02-26T16:12:37.959Z,98528.31
2023-02-26T16:15:33.843Z,98540.16
2023-02-26T16:18:26.293Z,98537.00
2023-02-26T16:21:24.860Z,98538.97
2023-02-26T16:24:21.859Z,98543.72
2023-02-26T16:27:15.042Z,98546.75
2023-02-26T16:30:06.950Z,98569.69
2023-02-26T16:32:56.375Z,98563.69
2023-02-26T16:35:50.351Z,98565.97
2023-02-26T16:38:49.692Z,98575.31
2023-02-26T16:41:41.447Z,98581.41
2023-02-26T16:44:48.157Z,98586.19
2023-02-26T16:47:38.003Z,98591.00
2023-02-26T16:50:29.530Z,98604.66
2023-02-26T16:53:21.952Z,98602.63
2023-02-26T16:56:16.679Z,98605.00
2023-02-26T16:59:13.058Z,98615.09
2023-02-26T17:02:05.377Z,98620.91
2023-02-26T17:04:59.115Z,98620.63
2023-02-26T17:07:58.210Z,98631.66
2023-02-26T17:10:51.681Z,98642.16
2023-02-26T17:13:39.552Z,98647.06
2023-02-26T17:16:27.410Z,98644.44
2023-02-26T17:19:15.466Z,98645.38
2023-02-26T17:22:03.996Z,98654.91
2023-02-26T17:24:52.686Z,98659.38
2023-02-26T17:27:42.448Z,98662.34
2023-02-26T17:30:32.697Z,98658.88
2023-02-26T17:33:21.031Z,98662.47
2023-02-26T17:36:18.672Z,98667.88
2023-02-26T17:39:06.803Z,98679.72
2023-02-26T17:41:54.743Z,98674.06
2023-02-26T17:44:44.415Z,98683.88
2023-02-26T17:47:32.470Z,98680.06
2023-02-26T17:50:37.670Z,98686.22
2023-02-26T17:53:29.417Z,98694.56
2023-02-26T17:56:26.687Z,98694.56
2023-02-26T17:59:14.473Z,98694.22
2023-02-26T18:02:03.205Z,98703.19
2023-02-26T18:04:51.982Z,98701.84
2023-02-26T18:07:40.074Z,98705.13
2023-02-26T18:10:27.841Z,98704.50
2023-02-26T18:13:16.063Z,98708.06
2023-02-26T18:16:04.452Z,98720.34
2023-02-26T18:18:54.095Z,98708.88
2023-02-26T18:21:41.886Z,98716.53
2023-02-26T18:24:29.996Z,98720.94
2023-02-26T18:27:22.384Z,98723.03
2023-02-26T18:30:22.632Z,98717.47
2023-02-26T18:33:10.329Z,98727.91
2023-02-26T18:35:59.459Z,98730.75
2023-02-26T18:38:46.972Z,98743.53
2023-02-26T18:41:36.112Z,98741.06
2023-02-26T18:44:23.643Z,98744.59
2023-02-26T18:47:12.193Z,98744.75
2023-02-26T18:50:00.152Z,98733.69
2023-02-26T18:52:49.107Z,98747.69
2023-02-26T18:55:37.359Z,98746.81
2023-02-26T18:58:25.271Z,98751.22
2023-02-26T19:01:13.037Z,98750.44
2023-02-26T19:04:00.678Z,98766.50
2023-02-26T19:06:48.115Z,98761.19
2023-02-26T19:09:37.238Z,98755.38
2023-02-26T19:12:26.429Z,98767.66
2023-02-26T19:15:15.154Z,98771.19
2023-02-26T19:18:02.939Z,98769.81
2023-02-26T19:20:51.230Z,98771.66
2023-02-26T19:23:39.026Z,98765.06
2023-02-26T19:26:28.398Z,98777.19
2023-02-26T19:29:19.334Z,98770.34
2023-02-26T19:32:09.265Z,98777.63
2023-02-26T19:34:57.349Z,98778.06
2023-02-26T19:37:45.370Z,98777.84
2023-02-26T19:40:33.160Z,98782.53
2023-02-26T19:43:23.338Z,98785.22
2023-02-26T19:46:13.245Z,98788.66
2023-02-26T19:49:01.027Z,98798.25
2023-02-26T19:51:48.884Z,98801.09
2023-02-26T19:54:36.736Z,98798.56
2023-02-26T19:57:24.201Z,98809.06
2023-02-26T20:00:15.921Z,98809.34
2023-02-26T20:03:03.655Z,98811.31
2023-02-26T20:05:52.947Z,98812.25
2023-02-26T20:08:41.149Z,98813.16
2023-02-26T20:11:29.271Z,98821.00
2023-02-26T20:14:18.562Z,98821.34
2023-02-26T20:17:07.721Z,98824.75
2023-02-26T20:19:55.447Z,98830.03
2023-02-26T20:22:43.058Z,98836.22
2023-02-26T20:25:31.458Z,98836.28
2023-02-26T20:28:19.259Z,98840.88
2023-02-26T20:31:07.765Z,98836.72
2023-02-26T20:33:56.982Z,98844.69
2023-02-26T20:36:45.311Z,98848.31
2023-02-26T20:39:33.337Z,98851.06
2023-02-26T20:42:21.112Z,98862.44
2023-02-26T20:45:09.400Z,98857.34
2023-02-26T20:47:58.501Z,98863.63
2023-02-26T20:50:47.643Z,98862.84
2023-02-26T20:53:35.797Z,98856.78
2023-02-26T20:56:23.859Z,98866.50
2023-02-26T20:59:11.681Z,98870.03
2023-02-26T21:01:59.386Z,98865.00
2023-02-26T21:04:46.996Z,98865.09
2023-02-26T21:07:37.009Z,98868.63
2023-02-26T21:10:24.762Z,98868.75
2023-02-26T21:13:12.470Z,98863.59
2023-02-26T21:16:00.888Z,98867.16
2023-02-26T21:18:48.297Z,98866.47
2023-02-26T21:21:35.769Z,98877.03
2023-02-26T21:24:24.821Z,98880.75
2023-02-26T21:27:12.944Z,98886.97
2023-02-26T21:30:00.923Z,98885.44
2023-02-26T21:32:48.556Z,98882.03
2023-02-26T21:35:36.166Z,98878.78
2023-02-26T21:38:23.578Z,98885.00
2023-02-26T21:41:12.849Z,98882.44
2023-02-26T21:44:00.328Z,98870.31
2023-02-26T21:46:47.948Z,98887.78
2023-02-26T21:49:35.515Z,98886.06
2023-02-26T21:52:25.827Z,98885.31
2023-02-26T21:55:13.429Z,98884.50
2023-02-26T21:58:02.919Z,98888.16
2023-02-26T22:00:50.335Z,98894.41
2023-02-26T22:03:38.260Z,98890.09
2023-02-26T22:06:25.926Z,98886.84
2023-02-26T22:09:14.520Z,98888.66
2023-02-26T22:12:02.123Z,98901.00
2023-02-26T22:14:51.006Z,98908.88
2023-02-26T22:17:38.965Z,98904.66
2023-02-26T22:20:26.730Z,98905.63
2023-02-26T22:23:14.660Z,98905.75
2023-02-26T22:26:02.505Z,98912.78
2023-02-26T22:28:49.949Z,98904.91
2023-02-26T22:31:38.829Z,98908.31
2023-02-26T22:34:27.329Z,98904.72
2023-02-26T22:37:15.222Z,98906.63
2023-02-26T22:40:03.826Z,98909.22
2023-02-26T22:42:51.730Z,98902.38
2023-02-26T22:45:39.675Z,98907.75
2023-02-26T22:48:28.851Z,98904.44
2023-02-26T22:51:16.674Z,98905.44
2023-02-26T22:54:04.641Z,98910.81
2023-02-26T22:56:52.196Z,98914.34
2023-02-26T22:59:39.606Z,98912.78
2023-02-26T23:02:27.086Z,98916.31
2023-02-26T23:05:17.193Z,98913.72
2023-02-26T23:08:05.075Z,98911.22
2023-02-26T23:10:56.078Z,98918.34
2023-02-26T23:13:43.731Z,98916.66
2023-02-26T23:16:31.167Z,98915.94
2023-02-26T23:19:19.389Z,98914.25
2023-02-26T23:22:08.536Z,98917.75
2023-02-26T23:24:56.516Z,98914.41
2023-02-26T23:27:44.443Z,98912.78
2023-02-26T23:30:31.947Z,98921.47
2023-02-26T23:33:19.769Z,98925.97
2023-02-26T23:36:08.499Z,98925.22
2023-02-26T23:38:57.736Z,98927.88
2023-02-26T23:41:45.545Z,98931.41
2023-02-26T23:44:33.495Z,98940.88
2023-02-26T23:47:21.037Z,98941.06
2023-02-26T23:50:10.319Z,98943.78
2023-02-26T23:52:57.855Z,98940.47
2023-02-26T23:55:48.308Z,98937.97
2023-02-26T23:58:36.036Z,98939.00
